Time;durP1;ratioP1;P1;durP2;ratioP2;P2;SDS_P1;SDS_P2;PMS_P1;PMS_P2;Temp;Humidity;BMP_temperature;BMP_pressure;BME280_temperature;BME280_humidity;BME280_pressure;Samples;Min_cycle;Max_cycle;Signal;HPM_P1;HPM_P2
2022/03/28 00:02:07;;;;;;;17.87;12.97;;;9.90;99.90;;;;;;5046306;28;20517;-34
2022/03/28 00:04:33;;;;;;;20.70;13.47;;;9.90;99.90;;;;;;5052201;28;20190;-34
2022/03/28 00:06:59;;;;;;;20.43;13.87;;;9.80;99.90;;;;;;5046549;28;20581;-34
2022/03/28 00:09:24;;;;;;;20.53;13.67;;;9.70;99.90;;;;;;5051103;28;20209;-34
2022/03/28 00:11:50;;;;;;;17.70;13.33;;;9.70;99.90;;;;;;5062853;28;20271;-34
2022/03/28 00:14:16;;;;;;;18.17;13.27;;;9.70;99.90;;;;;;5070720;28;20213;-34
2022/03/28 00:16:41;;;;;;;17.70;12.73;;;9.60;99.90;;;;;;5045926;28;20503;-34
2022/03/28 00:19:07;;;;;;;16.53;12.67;;;9.60;99.90;;;;;;5048476;28;20694;-34
2022/03/28 00:21:33;;;;;;;19.70;13.30;;;9.50;99.90;;;;;;5045670;28;20251;-34
2022/03/28 00:23:58;;;;;;;18.97;13.23;;;9.50;99.90;;;;;;5047529;28;20343;-34
2022/03/28 00:26:24;;;;;;;19.37;13.70;;;9.50;99.90;;;;;;5053373;28;20680;-34
2022/03/28 00:28:50;;;;;;;21.63;14.03;;;9.40;99.90;;;;;;5069412;28;20189;-34
2022/03/28 00:31:16;;;;;;;19.00;12.63;;;9.40;99.90;;;;;;5045303;28;20186;-34
2022/03/28 00:33:42;;;;;;;18.07;12.10;;;9.40;99.90;;;;;;5048798;28;20542;-34
2022/03/28 00:36:08;;;;;;;19.57;12.43;;;9.50;99.90;;;;;;5055222;28;20818;-34
2022/03/28 00:38:33;;;;;;;18.37;12.10;;;9.60;99.90;;;;;;5048937;28;20416;-34
2022/03/28 00:40:59;;;;;;;19.53;13.40;;;9.80;99.90;;;;;;5049402;28;20178;-34
2022/03/28 00:43:26;;;;;;;17.70;12.60;;;10.00;99.90;;;;;;5066755;28;20276;-34
2022/03/28 00:45:52;;;;;;;17.40;12.87;;;9.90;99.90;;;;;;5063002;28;20213;-34
2022/03/28 00:48:18;;;;;;;18.50;12.30;;;9.90;99.90;;;;;;5049510;28;20788;-34
2022/03/28 00:50:43;;;;;;;20.17;14.23;;;9.70;99.90;;;;;;5056879;28;20185;-33
2022/03/28 00:53:13;;;;;;;20.70;12.63;;;9.90;99.90;;;;;;5049603;28;20196;-34
2022/03/28 00:55:39;;;;;;;20.30;12.90;;;9.90;99.90;;;;;;5050504;28;20189;-34
2022/03/28 00:58:05;;;;;;;19.47;12.57;;;9.70;99.90;;;;;;5050368;28;20501;-34
2022/03/28 01:00:31;;;;;;;17.80;11.87;;;9.80;99.90;;;;;;5067346;28;20499;-33
2022/03/28 01:02:57;;;;;;;17.37;12.57;;;9.80;99.90;;;;;;5048472;28;20887;-34
2022/03/28 01:05:26;;;;;;;17.43;11.53;;;9.80;99.90;;;;;;5051903;28;20202;-34
2022/03/28 01:07:52;;;;;;;17.80;12.30;;;9.60;99.90;;;;;;5049420;28;20425;-34
2022/03/28 01:10:18;;;;;;;19.40;12.70;;;9.60;99.90;;;;;;5059855;28;20929;-34
2022/03/28 01:12:44;;;;;;;17.73;12.23;;;9.60;99.90;;;;;;5055188;28;20214;-34
2022/03/28 01:15:14;;;;;;;18.33;12.40;;;9.50;99.90;;;;;;5063388;28;20186;-34
2022/03/28 01:20:25;;;;;;;18.13;13.93;;;9.30;99.90;;;;;;5061504;28;20511;-33
2022/03/28 01:22:51;;;;;;;19.60;12.27;;;9.20;99.90;;;;;;5050310;28;20432;-33
2022/03/28 01:25:22;;;;;;;17.50;12.20;;;9.20;99.90;;;;;;5048546;28;20205;-34
2022/03/28 01:27:49;;;;;;;17.43;12.23;;;9.10;99.90;;;;;;5060177;28;20197;-34
2022/03/28 01:30:16;;;;;;;17.17;12.00;;;9.20;99.90;;;;;;5055026;28;20444;-34
2022/03/28 01:32:41;;;;;;;18.87;12.87;;;9.10;99.90;;;;;;5048964;28;20455;-33
2022/03/28 01:35:07;;;;;;;18.57;13.43;;;9.10;99.90;;;;;;5057374;28;20929;-34
2022/03/28 01:37:33;;;;;;;17.87;12.67;;;9.30;99.90;;;;;;5049044;28;20200;-34
2022/03/28 01:39:58;;;;;;;17.17;12.60;;;9.20;99.90;;;;;;5047859;28;20235;-34
2022/03/28 01:42:24;;;;;;;20.07;12.97;;;9.40;99.90;;;;;;5059980;28;20201;-34
2022/03/28 01:44:51;;;;;;;22.03;12.97;;;9.30;99.90;;;;;;5070099;28;20194;-34
2022/03/28 01:47:17;;;;;;;17.80;11.87;;;9.30;99.90;;;;;;5049000;28;20570;-34
2022/03/28 01:49:43;;;;;;;19.30;13.00;;;9.10;99.90;;;;;;5050107;28;20926;-34
2022/03/28 01:52:08;;;;;;;19.20;13.43;;;8.90;99.90;;;;;;5048666;28;20420;-34
2022/03/28 01:54:34;;;;;;;19.87;13.80;;;8.90;99.90;;;;;;5048057;28;20274;-34
2022/03/28 01:57:00;;;;;;;19.23;12.13;;;9.00;99.90;;;;;;5053884;28;20200;-34
2022/03/28 01:59:25;;;;;;;19.60;14.03;;;9.00;99.90;;;;;;5075129;28;20672;-34
2022/03/28 02:01:51;;;;;;;19.17;13.57;;;8.90;99.90;;;;;;5046673;28;20611;-33
2022/03/28 02:04:17;;;;;;;19.33;14.40;;;8.70;99.90;;;;;;5048159;28;20545;-34
2022/03/28 02:06:42;;;;;;;18.57;13.13;;;8.70;99.90;;;;;;5048075;28;20292;-34
2022/03/28 02:09:08;;;;;;;20.10;11.50;;;8.90;99.90;;;;;;5050295;28;20181;-34
2022/03/28 02:11:34;;;;;;;21.20;14.33;;;8.90;99.90;;;;;;5069737;28;20180;-34
2022/03/28 02:14:00;;;;;;;17.83;12.13;;;8.70;99.90;;;;;;5067288;28;20283;-34
2022/03/28 02:16:26;;;;;;;18.43;12.80;;;8.70;99.90;;;;;;5057801;28;20213;-34
2022/03/28 02:18:51;;;;;;;17.00;12.30;;;9.00;99.90;;;;;;5047999;28;20535;-34
2022/03/28 02:21:17;;;;;;;21.10;12.50;;;8.70;99.90;;;;;;5056071;28;20190;-34
2022/03/28 02:23:43;;;;;;;22.80;12.87;;;8.70;99.90;;;;;;5048581;28;20260;-34
2022/03/28 02:26:08;;;;;;;16.90;11.70;;;8.70;99.90;;;;;;5047014;28;20750;-34
2022/03/28 02:28:34;;;;;;;17.73;13.43;;;8.70;99.90;;;;;;5065220;28;20669;-34
2022/03/28 02:31:00;;;;;;;16.30;12.93;;;8.60;99.90;;;;;;5067818;28;20442;-33
2022/03/28 02:33:26;;;;;;;17.53;13.20;;;8.90;99.90;;;;;;5052210;28;20186;-34
2022/03/28 02:35:52;;;;;;;17.47;12.80;;;8.60;99.90;;;;;;5052341;28;20780;-34
2022/03/28 02:38:18;;;;;;;17.77;11.63;;;8.80;99.90;;;;;;5047294;28;20635;-34
2022/03/28 02:40:43;;;;;;;17.37;12.10;;;9.00;99.90;;;;;;5047009;28;20439;-34
2022/03/28 02:43:09;;;;;;;19.60;12.97;;;8.90;99.90;;;;;;5061740;28;20642;-34
2022/03/28 02:45:36;;;;;;;17.07;12.73;;;8.80;99.90;;;;;;5067174;28;20205;-34
2022/03/28 02:48:04;;;;;;;19.63;14.23;;;8.70;99.90;;;;;;5047536;28;20319;-34
2022/03/28 02:50:32;;;;;;;17.60;12.93;;;8.90;99.90;;;;;;5047721;28;20873;-34
2022/03/28 02:52:58;;;;;;;19.93;13.53;;;8.80;99.90;;;;;;5047006;28;20424;-34
2022/03/28 02:55:24;;;;;;;17.00;12.30;;;8.70;99.90;;;;;;5047802;28;20482;-34
2022/03/28 02:57:51;;;;;;;22.57;13.77;;;8.60;99.90;;;;;;5055030;28;20235;-34
2022/03/28 03:00:17;;;;;;;18.10;12.43;;;8.50;99.90;;;;;;5079576;28;20189;-34
2022/03/28 03:02:43;;;;;;;19.20;12.60;;;8.80;99.90;;;;;;5046580;28;20424;-34
2022/03/28 03:05:10;;;;;;;23.63;13.47;;;8.70;99.90;;;;;;5052001;28;20189;-34
2022/03/28 03:07:36;;;;;;;17.43;11.90;;;8.50;99.90;;;;;;5050578;28;20416;-34
2022/03/28 03:10:02;;;;;;;20.97;13.03;;;8.50;99.90;;;;;;5056283;28;20415;-33
2022/03/28 03:12:28;;;;;;;20.70;13.07;;;8.70;99.90;;;;;;5061978;28;20593;-34
2022/03/28 03:14:54;;;;;;;17.30;12.90;;;8.70;99.90;;;;;;5079862;28;20437;-34
2022/03/28 03:17:20;;;;;;;20.87;14.20;;;8.80;99.90;;;;;;5053470;28;20193;-34
2022/03/28 03:19:46;;;;;;;19.30;13.07;;;8.60;99.90;;;;;;5046762;28;20217;-34
2022/03/28 03:22:15;;;;;;;16.67;12.53;;;8.60;99.90;;;;;;5050789;28;20475;-34
2022/03/28 03:24:45;;;;;;;19.43;13.37;;;8.60;99.90;;;;;;5046925;28;20193;-34
2022/03/28 03:27:12;;;;;;;20.77;13.63;;;8.40;99.90;;;;;;5046931;28;20475;-34
2022/03/28 03:29:37;;;;;;;19.40;13.33;;;8.40;99.90;;;;;;5070270;28;20443;-34
2022/03/28 03:32:04;;;;;;;22.10;14.17;;;8.10;99.90;;;;;;5059984;28;20883;-34
2022/03/28 03:34:31;;;;;;;19.70;13.50;;;8.20;99.90;;;;;;5046669;28;20204;-34
2022/03/28 03:36:57;;;;;;;17.97;13.20;;;8.10;99.90;;;;;;5046719;28;20456;-34
2022/03/28 03:39:22;;;;;;;21.60;14.27;;;8.20;99.90;;;;;;5046429;28;20461;-34
2022/03/28 03:41:49;;;;;;;18.10;13.20;;;8.10;99.90;;;;;;5050332;28;20722;-34
2022/03/28 03:44:14;;;;;;;18.90;12.70;;;8.00;99.90;;;;;;5053487;28;20495;-34
2022/03/28 03:46:40;;;;;;;18.90;13.20;;;8.10;99.90;;;;;;5054123;28;20554;-33
2022/03/28 03:49:06;;;;;;;18.47;12.83;;;8.10;99.90;;;;;;5046264;28;20189;-34
2022/03/28 03:51:32;;;;;;;19.37;12.90;;;8.30;99.90;;;;;;5055955;28;20424;-33
2022/03/28 03:53:57;;;;;;;16.40;12.80;;;8.40;99.90;;;;;;5046648;28;20193;-34
2022/03/28 03:56:23;;;;;;;19.63;13.77;;;8.70;99.90;;;;;;5046160;28;20209;-34
2022/03/28 03:58:49;;;;;;;20.70;14.03;;;8.60;99.90;;;;;;5060203;28;20189;-34
2022/03/28 04:01:14;;;;;;;18.57;13.40;;;8.40;99.90;;;;;;5066100;28;20216;-34
2022/03/28 04:03:40;;;;;;;17.53;12.77;;;8.30;99.90;;;;;;5045366;28;20298;-34
2022/03/28 04:06:05;;;;;;;24.00;12.53;;;8.20;99.90;;;;;;5051516;28;20232;-34
2022/03/28 04:08:31;;;;;;;18.33;12.63;;;8.10;99.90;;;;;;5046498;28;20720;-34
2022/03/28 04:10:57;;;;;;;19.27;12.67;;;8.30;99.90;;;;;;5063250;28;20189;-34
2022/03/28 04:13:23;;;;;;;20.73;12.70;;;8.10;99.90;;;;;;5066552;28;20747;-34
2022/03/28 04:15:49;;;;;;;16.63;12.93;;;8.00;99.90;;;;;;5070606;28;20197;-34
2022/03/28 04:18:15;;;;;;;17.40;12.50;;;7.90;99.90;;;;;;5050340;28;20181;-34
2022/03/28 04:20:40;;;;;;;18.50;12.73;;;7.80;99.90;;;;;;5051275;28;20965;-34
2022/03/28 04:23:06;;;;;;;18.03;13.47;;;7.80;99.90;;;;;;5051186;28;20221;-34
2022/03/28 04:25:32;;;;;;;18.70;12.60;;;8.10;99.90;;;;;;5050180;28;20303;-34
2022/03/28 04:27:58;;;;;;;22.03;12.90;;;8.30;99.90;;;;;;5061116;28;20182;-34
2022/03/28 04:30:24;;;;;;;18.67;12.70;;;8.10;99.90;;;;;;5071349;28;20481;-33
2022/03/28 04:32:49;;;;;;;18.53;13.13;;;8.00;99.90;;;;;;5056622;28;20266;-34
2022/03/28 04:35:15;;;;;;;21.17;14.00;;;8.10;99.90;;;;;;5051592;28;20208;-34
2022/03/28 04:37:42;;;;;;;18.67;13.00;;;8.10;99.90;;;;;;5059446;28;20220;-34
2022/03/28 04:40:10;;;;;;;20.20;12.93;;;7.90;99.90;;;;;;5049395;28;20189;-34
2022/03/28 04:42:37;;;;;;;18.80;13.30;;;7.80;99.90;;;;;;5048718;28;20450;-34
2022/03/28 04:45:04;;;;;;;18.67;12.07;;;8.00;99.90;;;;;;5066290;28;20935;-34
2022/03/28 04:47:30;;;;;;;21.47;13.50;;;7.80;99.90;;;;;;5061996;28;20468;-34
2022/03/28 04:49:56;;;;;;;19.53;13.33;;;7.60;99.90;;;;;;5049181;28;21006;-34
2022/03/28 04:52:22;;;;;;;19.20;12.50;;;7.60;99.90;;;;;;5057188;28;20268;-34
2022/03/28 04:54:48;;;;;;;17.23;12.07;;;7.50;99.90;;;;;;5062977;28;20440;-33
2022/03/28 04:57:13;;;;;;;22.30;13.50;;;7.60;99.90;;;;;;5071434;28;20696;-34
2022/03/28 04:59:39;;;;;;;21.13;13.90;;;7.60;99.90;;;;;;5066007;28;20265;-34
2022/03/28 05:02:06;;;;;;;17.40;11.37;;;7.80;99.90;;;;;;5071557;28;20197;-34
2022/03/28 05:04:32;;;;;;;18.17;12.70;;;7.60;99.90;;;;;;5051142;28;20243;-34
2022/03/28 05:06:58;;;;;;;15.57;11.83;;;7.60;99.90;;;;;;5066337;28;20848;-34
2022/03/28 05:09:24;;;;;;;21.37;13.10;;;7.80;99.90;;;;;;5064000;28;20715;-34
2022/03/28 05:11:49;;;;;;;17.87;12.00;;;7.80;99.90;;;;;;5048915;28;20471;-34
2022/03/28 05:14:15;;;;;;;16.53;11.70;;;7.90;99.90;;;;;;5063794;28;20194;-34
2022/03/28 05:16:40;;;;;;;19.40;13.60;;;7.90;99.90;;;;;;5064365;28;20197;-34
2022/03/28 05:19:06;;;;;;;18.80;12.97;;;7.80;99.90;;;;;;5047858;28;20201;-34
2022/03/28 05:21:32;;;;;;;19.07;13.23;;;7.70;99.90;;;;;;5060230;28;20188;-34
2022/03/28 05:23:57;;;;;;;19.70;13.33;;;7.80;99.90;;;;;;5067382;28;20218;-34
2022/03/28 05:26:23;;;;;;;19.53;12.63;;;8.30;99.90;;;;;;5047731;28;20756;-34
2022/03/28 05:28:49;;;;;;;20.83;14.23;;;8.00;99.90;;;;;;5049873;28;20629;-34
2022/03/28 05:31:14;;;;;;;19.07;12.80;;;7.90;99.90;;;;;;5077673;28;20185;-34
2022/03/28 05:33:40;;;;;;;19.07;13.57;;;7.80;99.90;;;;;;5048518;28;20225;-34
2022/03/28 05:36:07;;;;;;;18.60;12.83;;;7.80;99.90;;;;;;5054268;28;20733;-34
2022/03/28 05:38:33;;;;;;;21.23;13.67;;;7.90;99.90;;;;;;5050456;28;20490;-34
2022/03/28 05:40:59;;;;;;;18.20;12.30;;;8.00;99.90;;;;;;5056093;28;20787;-34
2022/03/28 05:43:25;;;;;;;18.60;12.70;;;8.00;99.90;;;;;;5060802;28;20453;-34
2022/03/28 05:45:52;;;;;;;20.80;13.30;;;7.90;99.90;;;;;;5071944;28;20203;-34
2022/03/28 05:48:19;;;;;;;17.40;12.07;;;8.20;99.90;;;;;;5062133;28;20427;-34
2022/03/28 05:50:46;;;;;;;17.30;12.27;;;7.90;99.90;;;;;;5062575;28;20785;-34
2022/03/28 05:53:13;;;;;;;22.10;14.27;;;8.10;99.90;;;;;;5055959;28;20442;-34
2022/03/28 05:55:41;;;;;;;19.33;13.40;;;7.90;99.90;;;;;;5068394;28;20855;-34
2022/03/28 05:58:08;;;;;;;20.43;13.90;;;8.00;99.90;;;;;;5062517;28;20460;-34
2022/03/28 06:00:35;;;;;;;17.97;12.90;;;8.10;99.90;;;;;;5060032;28;20429;-34
2022/03/28 06:03:01;;;;;;;21.40;14.17;;;8.20;99.90;;;;;;5060462;28;20522;-34
2022/03/28 06:05:27;;;;;;;18.30;12.47;;;8.20;99.90;;;;;;5077281;28;20522;-34
2022/03/28 06:07:53;;;;;;;19.10;13.13;;;8.20;99.90;;;;;;5049832;28;20478;-34
2022/03/28 06:10:18;;;;;;;20.53;13.00;;;8.30;99.90;;;;;;5059993;28;20435;-34
2022/03/28 06:12:44;;;;;;;22.43;13.37;;;8.60;99.90;;;;;;5066939;28;20181;-34
2022/03/28 06:15:10;;;;;;;19.47;13.47;;;9.00;99.90;;;;;;5057114;28;20255;-34
2022/03/28 06:17:36;;;;;;;22.10;14.00;;;9.00;99.90;;;;;;5056112;28;20197;-34
2022/03/28 06:20:03;;;;;;;20.27;14.13;;;9.40;99.90;;;;;;5047655;28;20451;-34
2022/03/28 06:22:29;;;;;;;15.77;12.90;;;9.40;99.90;;;;;;5054057;28;20610;-34
2022/03/28 06:24:54;;;;;;;17.37;11.83;;;9.50;99.90;;;;;;5058289;28;20420;-34
2022/03/28 06:27:23;;;;;;;19.60;14.43;;;9.60;99.90;;;;;;5057592;28;20201;-34
2022/03/28 06:29:53;;;;;;;19.30;12.80;;;9.70;99.90;;;;;;5055887;28;20192;-34
2022/03/28 06:32:19;;;;;;;19.80;13.50;;;9.90;99.90;;;;;;5063572;28;20459;-34
2022/03/28 06:34:45;;;;;;;19.80;13.00;;;10.00;99.90;;;;;;5055033;28;20428;-34
2022/03/28 06:37:10;;;;;;;23.63;14.93;;;10.40;99.90;;;;;;5056132;28;20427;-34
2022/03/28 06:39:36;;;;;;;26.63;16.53;;;10.30;99.90;;;;;;5057201;28;20198;-34
2022/03/28 06:42:03;;;;;;;23.07;14.97;;;10.50;99.90;;;;;;5055623;28;20224;-34
2022/03/28 06:44:30;;;;;;;23.30;15.07;;;10.60;99.90;;;;;;5072064;28;20645;-34
2022/03/28 06:46:56;;;;;;;27.50;16.03;;;10.60;99.90;;;;;;5058829;28;20499;-34
2022/03/28 06:49:22;;;;;;;24.33;16.60;;;10.80;99.90;;;;;;5055714;28;20473;-34
2022/03/28 06:51:48;;;;;;;27.77;17.00;;;11.00;99.90;;;;;;5055717;28;20430;-34
2022/03/28 06:54:14;;;;;;;26.63;16.17;;;11.10;99.90;;;;;;5051274;28;20420;-34
2022/03/28 06:56:41;;;;;;;25.33;15.40;;;11.20;99.90;;;;;;5047055;28;20280;-34
2022/03/28 06:59:08;;;;;;;28.57;18.87;;;11.40;99.90;;;;;;5054758;28;20474;-34
2022/03/28 07:01:36;;;;;;;26.33;18.40;;;11.50;99.90;;;;;;5069205;28;20414;-34
2022/03/28 07:04:03;;;;;;;25.97;18.47;;;11.50;99.90;;;;;;5059905;28;20423;-33
2022/03/28 07:06:29;;;;;;;24.70;16.50;;;11.60;99.90;;;;;;5059774;28;20479;-34
2022/03/28 07:08:54;;;;;;;26.23;15.97;;;11.60;99.90;;;;;;5047549;28;20901;-34
2022/03/28 07:11:20;;;;;;;26.73;18.00;;;11.60;99.90;;;;;;5054540;28;20435;-34
2022/03/28 07:13:46;;;;;;;25.30;16.60;;;11.60;99.90;;;;;;5059849;28;20196;-34
2022/03/28 07:16:11;;;;;;;27.37;17.60;;;11.40;99.90;;;;;;5064427;28;20436;-34
2022/03/28 07:18:37;;;;;;;25.60;16.90;;;11.60;99.90;;;;;;5059820;28;20201;-34
2022/03/28 07:21:03;;;;;;;23.87;17.07;;;11.80;99.90;;;;;;5054563;28;20740;-34
2022/03/28 07:23:29;;;;;;;24.40;16.73;;;11.90;99.90;;;;;;5055189;28;20201;-34
2022/03/28 07:25:56;;;;;;;25.10;17.57;;;12.00;99.90;;;;;;5056918;28;20239;-34
2022/03/28 07:28:22;;;;;;;24.40;16.97;;;12.00;99.90;;;;;;5058645;28;20446;-34
2022/03/28 07:30:48;;;;;;;28.30;18.17;;;12.20;99.90;;;;;;5061958;28;20422;-34
2022/03/28 07:33:14;;;;;;;24.53;17.07;;;12.30;99.90;;;;;;5062570;28;20419;-34
2022/03/28 07:35:40;;;;;;;23.13;16.90;;;12.50;99.90;;;;;;5062368;28;20181;-34
2022/03/28 07:38:08;;;;;;;29.53;17.47;;;12.60;99.90;;;;;;5052417;28;20436;-34
2022/03/28 07:40:35;;;;;;;24.50;17.07;;;12.80;99.90;;;;;;5052517;28;20419;-34
2022/03/28 07:43:00;;;;;;;23.93;17.17;;;12.90;99.90;;;;;;5059347;28;20463;-34
2022/03/28 07:45:26;;;;;;;25.67;17.47;;;13.10;99.90;;;;;;5064421;28;20907;-34
2022/03/28 07:47:52;;;;;;;21.23;15.63;;;13.20;99.90;;;;;;5068912;28;20189;-34
2022/03/28 07:50:18;;;;;;;22.13;17.13;;;13.30;99.90;;;;;;5053315;28;20436;-34
2022/03/28 07:52:44;;;;;;;25.17;16.80;;;13.50;99.90;;;;;;5057310;28;20231;-34
2022/03/28 07:55:13;;;;;;;25.67;16.70;;;13.50;99.90;;;;;;5060320;28;20801;-34
2022/03/28 07:57:39;;;;;;;24.10;17.50;;;13.60;99.90;;;;;;5061202;28;20204;-34
2022/03/28 08:00:11;;;;;;;25.00;17.33;;;13.80;99.90;;;;;;5055563;28;20440;-34
2022/03/28 08:02:38;;;;;;;21.57;16.53;;;13.80;99.90;;;;;;5069902;28;20422;-34
2022/03/28 08:05:05;;;;;;;25.13;18.17;;;13.80;99.90;;;;;;5049215;28;20431;-34
2022/03/28 08:07:31;;;;;;;25.50;17.80;;;14.00;99.90;;;;;;5054111;28;20455;-34
2022/03/28 08:09:57;;;;;;;22.90;17.97;;;14.10;99.90;;;;;;5050252;28;20918;-34
2022/03/28 08:12:23;;;;;;;22.80;16.27;;;14.10;99.90;;;;;;5055482;28;20427;-35
2022/03/28 08:14:50;;;;;;;21.50;16.17;;;14.10;99.90;;;;;;5064917;28;20432;-34
2022/03/28 08:17:18;;;;;;;21.30;15.83;;;14.20;99.90;;;;;;5067129;28;20244;-34
2022/03/28 08:19:43;;;;;;;21.00;16.63;;;14.30;99.90;;;;;;5052387;28;20786;-34
2022/03/28 08:22:09;;;;;;;22.83;17.50;;;14.30;99.90;;;;;;5049648;28;20439;-34
2022/03/28 08:24:35;;;;;;;23.27;17.43;;;14.40;99.90;;;;;;5050410;28;20623;-34
2022/03/28 08:27:00;;;;;;;23.00;17.80;;;14.40;99.90;;;;;;5050031;28;20227;-34
2022/03/28 08:29:26;;;;;;;27.93;18.27;;;14.40;99.90;;;;;;5059767;28;20223;-34
2022/03/28 08:31:52;;;;;;;24.63;18.10;;;14.50;99.90;;;;;;5061199;28;20547;-34
2022/03/28 08:34:19;;;;;;;22.57;17.20;;;14.40;99.90;;;;;;5056568;28;20189;-34
2022/03/28 08:36:45;;;;;;;26.80;17.40;;;14.50;99.90;;;;;;5048260;28;20196;-34
2022/03/28 08:39:11;;;;;;;27.50;19.20;;;14.40;99.90;;;;;;5060112;28;20448;-34
2022/03/28 08:41:36;;;;;;;24.70;18.23;;;14.40;99.90;;;;;;5049069;28;20193;-35
2022/03/28 08:44:03;;;;;;;25.53;19.07;;;14.50;99.90;;;;;;5049410;28;20680;-34
2022/03/28 08:46:30;;;;;;;24.47;18.70;;;14.60;99.90;;;;;;5061204;28;20243;-35
2022/03/28 08:48:58;;;;;;;24.53;18.73;;;14.60;99.90;;;;;;5057820;28;20460;-35
2022/03/28 08:51:24;;;;;;;21.63;17.20;;;14.70;99.90;;;;;;5048756;28;20446;-34
2022/03/28 08:53:50;;;;;;;24.87;18.00;;;14.80;99.90;;;;;;5054089;28;20907;-34
2022/03/28 08:56:17;;;;;;;29.03;19.30;;;14.80;99.90;;;;;;5049526;28;20443;-34
2022/03/28 08:58:42;;;;;;;27.77;19.60;;;14.90;99.90;;;;;;5048501;28;20435;-34
2022/03/28 09:01:08;;;;;;;23.60;19.00;;;14.90;99.90;;;;;;5061957;28;20440;-34
2022/03/28 09:03:39;;;;;;;23.13;18.83;;;15.10;99.90;;;;;;5066157;28;20250;-34
2022/03/28 09:06:28;;;;;;;25.73;20.47;;;15.20;99.90;;;;;;5047920;28;20475;-34
2022/03/28 09:08:54;;;;;;;24.80;19.23;;;15.40;99.90;;;;;;5050950;28;20479;-34
2022/03/28 09:11:21;;;;;;;27.90;20.77;;;15.60;99.90;;;;;;5047595;28;20475;-34
2022/03/28 09:13:46;;;;;;;26.27;19.87;;;15.70;99.90;;;;;;5048623;28;20276;-34
2022/03/28 09:16:18;;;;;;;24.77;19.77;;;15.90;99.90;;;;;;5066034;28;20568;-34
2022/03/28 09:18:44;;;;;;;25.10;19.77;;;16.00;99.90;;;;;;5070051;28;20277;-34
2022/03/28 09:21:14;;;;;;;28.57;19.60;;;16.20;99.90;;;;;;5048709;28;20956;-35
2022/03/28 09:23:45;;;;;;;25.63;20.53;;;16.20;99.90;;;;;;5049717;28;20216;-34
2022/03/28 09:26:25;;;;;;;27.27;18.97;;;16.20;99.90;;;;;;5049054;28;20476;-35
2022/03/28 09:28:56;;;;;;;25.67;20.73;;;16.40;99.90;;;;;;5063087;28;20480;-34
2022/03/28 09:31:34;;;;;;;26.53;18.67;;;16.70;99.90;;;;;;5058973;28;20447;-34
2022/03/28 09:34:13;;;;;;;25.30;19.47;;;16.90;99.90;;;;;;5059617;28;20411;-35
2022/03/28 09:36:41;;;;;;;25.27;18.40;;;16.90;99.90;;;;;;5059770;28;20437;-34
2022/03/28 09:39:12;;;;;;;23.00;18.43;;;17.10;99.90;;;;;;5056426;28;20734;-35
2022/03/28 09:41:38;;;;;;;26.53;19.23;;;17.30;99.90;;;;;;5054716;28;20485;-35
2022/03/28 09:44:04;;;;;;;27.27;19.87;;;17.50;99.90;;;;;;5062561;28;20431;-35
2022/03/28 09:46:32;;;;;;;28.70;19.83;;;17.70;99.90;;;;;;5072104;28;20844;-35
2022/03/28 09:48:59;;;;;;;22.53;18.80;;;17.70;99.90;;;;;;5063998;28;20871;-35
2022/03/28 09:51:30;;;;;;;23.00;17.70;;;17.90;99.90;;;;;;5050755;28;20520;-35
2022/03/28 09:53:56;;;;;;;25.73;20.13;;;18.30;99.90;;;;;;5056373;28;20446;-35
2022/03/28 09:56:22;;;;;;;24.60;18.93;;;18.50;99.90;;;;;;5056088;28;20447;-35
2022/03/28 09:58:59;;;;;;;25.33;19.20;;;18.50;99.90;;;;;;5059331;28;20502;-35
2022/03/28 10:01:38;;;;;;;22.90;18.40;;;18.50;99.60;;;;;;5069104;28;20218;-34
2022/03/28 10:04:09;;;;;;;21.23;17.50;;;18.70;99.90;;;;;;5058225;28;20541;-35
2022/03/28 10:06:37;;;;;;;24.93;18.87;;;18.80;99.90;;;;;;5051470;28;20825;-35
2022/03/28 10:09:04;;;;;;;21.73;17.37;;;19.00;99.60;;;;;;5054230;28;20443;-35
2022/03/28 10:11:31;;;;;;;29.00;20.13;;;19.10;99.50;;;;;;5062100;28;20426;-35
2022/03/28 10:13:57;;;;;;;23.07;17.87;;;19.20;98.90;;;;;;5064284;28;20431;-34
2022/03/28 10:16:24;;;;;;;23.40;18.60;;;19.10;97.80;;;;;;5054183;28;20412;-35
2022/03/28 10:18:50;;;;;;;24.40;17.50;;;19.10;97.80;;;;;;5077881;28;20493;-35
2022/03/28 10:21:29;;;;;;;22.83;18.67;;;19.20;98.50;;;;;;5047144;28;20420;-34
2022/03/28 10:24:05;;;;;;;24.80;20.00;;;19.50;99.20;;;;;;5049164;28;20478;-35
2022/03/28 10:26:34;;;;;;;28.37;19.07;;;19.60;98.00;;;;;;5048217;28;20545;-35
2022/03/28 10:29:22;;;;;;;26.10;20.40;;;19.80;97.20;;;;;;5046516;28;20515;-35
2022/03/28 10:32:17;;;;;;;24.73;18.43;;;19.70;96.30;;;;;;5069092;28;20418;-34
2022/03/28 10:34:59;;;;;;;26.10;20.53;;;19.80;97.50;;;;;;5059869;28;20518;-35
2022/03/28 10:37:25;;;;;;;23.50;19.43;;;19.80;96.60;;;;;;5047667;28;20527;-35
2022/03/28 10:40:12;;;;;;;25.60;19.33;;;19.80;96.60;;;;;;5062558;28;20440;-35
2022/03/28 10:42:44;;;;;;;24.20;19.30;;;19.80;96.10;;;;;;5047685;28;20949;-34
2022/03/28 10:45:11;;;;;;;28.43;21.07;;;19.80;96.90;;;;;;5044575;28;20490;-35
2022/03/28 10:47:44;;;;;;;27.70;21.33;;;19.70;95.40;;;;;;5054970;28;20464;-35
2022/03/28 10:50:12;;;;;;;27.80;20.80;;;19.70;96.10;;;;;;5058521;28;20462;-34
2022/03/28 10:53:09;;;;;;;29.10;19.90;;;19.40;96.10;;;;;;5047490;28;20424;-35
2022/03/28 10:55:45;;;;;;;25.47;19.57;;;19.50;96.40;;;;;;5037896;28;20523;-35
2022/03/28 10:58:11;;;;;;;24.23;19.50;;;19.70;96.50;;;;;;5051802;28;20677;-35
2022/03/28 11:00:37;;;;;;;24.00;18.33;;;19.90;96.20;;;;;;5062148;28;20448;-35
2022/03/28 11:03:03;;;;;;;26.40;20.70;;;20.10;95.90;;;;;;5053512;28;20455;-35
2022/03/28 11:05:31;;;;;;;23.77;18.93;;;20.20;95.10;;;;;;5051037;28;20186;-35
2022/03/28 11:08:03;;;;;;;25.70;19.80;;;20.20;95.20;;;;;;5049129;28;20420;-35
2022/03/28 11:10:29;;;;;;;30.10;20.67;;;20.20;95.50;;;;;;5057960;28;20427;-35
2022/03/28 11:13:13;;;;;;;28.50;19.20;;;20.20;94.40;;;;;;5053860;28;20415;-35
2022/03/28 11:15:43;;;;;;;22.87;19.30;;;20.20;93.80;;;;;;5062958;28;20193;-35
2022/03/28 11:18:11;;;;;;;28.50;20.30;;;20.20;94.20;;;;;;5066466;28;20430;-35
2022/03/28 11:20:48;;;;;;;25.97;20.50;;;20.40;95.60;;;;;;5046201;28;20424;-35
2022/03/28 11:23:18;;;;;;;25.90;21.83;;;20.50;93.80;;;;;;5047822;28;20478;-35
2022/03/28 11:25:44;;;;;;;25.00;19.67;;;20.60;93.90;;;;;;5046573;28;20487;-35
2022/03/28 11:28:34;;;;;;;30.67;23.10;;;20.60;94.10;;;;;;5046924;28;20420;-35
2022/03/28 11:31:09;;;;;;;27.00;20.90;;;20.60;94.10;;;;;;5049332;28;20673;-35
2022/03/28 11:33:37;;;;;;;25.30;20.70;;;20.70;94.40;;;;;;5068367;28;20822;-34
2022/03/28 11:36:14;;;;;;;27.87;22.87;;;20.80;94.50;;;;;;5046726;28;20439;-35
2022/03/28 11:38:51;;;;;;;24.37;20.53;;;20.80;93.70;;;;;;5047526;28;20434;-35
2022/03/28 11:41:19;;;;;;;29.40;22.37;;;20.70;93.60;;;;;;5044706;28;20431;-35
2022/03/28 11:43:45;;;;;;;27.60;22.43;;;20.70;93.90;;;;;;5046719;28;20432;-35
2022/03/28 11:46:17;;;;;;;25.03;21.60;;;20.70;93.90;;;;;;5054741;28;20464;-35
2022/03/28 11:49:01;;;;;;;26.30;19.83;;;20.70;93.60;;;;;;5064932;28;20690;-35
2022/03/28 11:51:35;;;;;;;26.27;20.43;;;20.80;94.00;;;;;;5047838;28;20718;-35
2022/03/28 11:54:07;;;;;;;24.10;19.13;;;20.90;94.00;;;;;;5066439;28;20557;-35
2022/03/28 11:58:14;;;;;;;26.57;19.80;;;21.00;93.90;;;;;;5047096;28;20444;-35
2022/03/28 11:59:22;;;;;;;24.47;19.67;;;21.20;93.60;;;;;;5046192;28;20438;-35
2022/03/28 12:02:02;;;;;;;29.27;21.37;;;21.20;93.30;;;;;;5057663;28;20430;-35
2022/03/28 12:04:29;;;;;;;25.10;19.70;;;21.30;93.40;;;;;;5059035;28;20505;-35
2022/03/28 12:06:56;;;;;;;27.90;21.83;;;21.30;93.30;;;;;;5047017;28;20460;-35
2022/03/28 12:09:22;;;;;;;28.60;21.17;;;21.20;91.90;;;;;;5053157;28;20428;-35
2022/03/28 12:11:53;;;;;;;30.17;22.30;;;20.70;92.00;;;;;;5044739;28;20420;-35
2022/03/28 12:14:20;;;;;;;27.77;22.63;;;20.80;92.40;;;;;;5046288;28;20220;-35
2022/03/28 12:16:53;;;;;;;28.60;20.10;;;20.70;92.20;;;;;;5061282;28;20474;-35
2022/03/28 12:19:27;;;;;;;26.20;21.13;;;20.80;93.30;;;;;;5066458;28;20482;-35
2022/03/28 12:21:55;;;;;;;25.93;19.40;;;20.80;92.60;;;;;;5046874;28;20459;-35
2022/03/28 12:24:22;;;;;;;25.40;20.53;;;20.80;93.00;;;;;;5046062;28;20450;-35
2022/03/28 12:26:50;;;;;;;26.47;21.70;;;21.00;92.90;;;;;;5044955;28;20925;-34
2022/03/28 12:29:16;;;;;;;24.87;20.50;;;21.00;91.60;;;;;;5046004;28;20442;-35
2022/03/28 12:31:43;;;;;;;26.63;20.40;;;21.10;92.10;;;;;;5060332;28;20718;-35
2022/03/28 12:34:09;;;;;;;23.80;20.13;;;21.10;91.40;;;;;;5067640;28;20490;-35
2022/03/28 12:36:36;;;;;;;23.50;19.40;;;21.20;92.10;;;;;;5049976;28;20423;-35
2022/03/28 12:39:06;;;;;;;24.90;19.10;;;21.40;92.60;;;;;;5057096;28;20512;-35